createdAt,value
2022-10-24T00:00:42.764Z,99892.72
2022-10-24T00:03:11.629Z,99885.75
2022-10-24T00:05:43.018Z,99883.63
2022-10-24T00:08:11.441Z,99877.09
2022-10-24T00:10:42.348Z,99884.44
2022-10-24T00:13:12.179Z,99879.47
2022-10-24T00:15:40.786Z,99879.47
2022-10-24T00:18:08.484Z,99893.78
2022-10-24T00:20:37.163Z,99877.81
2022-10-24T00:23:05.015Z,99895.44
2022-10-24T00:25:32.880Z,99887.28
2022-10-24T00:28:00.674Z,99887.28
2022-10-24T00:30:30.043Z,99880.94
2022-10-24T00:32:57.789Z,99884.44
2022-10-24T00:35:25.599Z,99881.59
2022-10-24T00:37:53.358Z,99879.13
2022-10-24T00:40:22.181Z,99878.75
2022-10-24T00:42:50.262Z,99873.63
2022-10-24T00:45:43.476Z,99875.44
2022-10-24T00:48:17.234Z,99871.97
2022-10-24T00:50:46.376Z,99880.66
2022-10-24T00:53:16.001Z,99876.91
2022-10-24T00:55:44.653Z,99885.06
2022-10-24T00:58:13.207Z,99884.59
2022-10-24T01:00:42.292Z,99879.59
2022-10-24T01:03:11.968Z,99876.47
2022-10-24T01:05:56.726Z,99870.69
2022-10-24T01:08:31.730Z,99868.03
2022-10-24T01:11:06.223Z,99872.88
2022-10-24T01:13:44.399Z,99863.44
2022-10-24T01:16:16.934Z,99854.78
2022-10-24T01:18:51.032Z,99854.31
2022-10-24T01:21:31.333Z,99852.22
2022-10-24T01:24:11.497Z,99850.56
2022-10-24T01:27:22.264Z,99849.91
2022-10-24T01:30:02.629Z,99813.53
2022-10-24T01:32:46.264Z,99825.97
2022-10-24T01:35:36.490Z,99822.66
2022-10-24T01:38:14.337Z,99834.25
2022-10-24T01:40:50.744Z,99834.69
2022-10-24T01:43:24.155Z,99837.53
2022-10-24T01:45:59.130Z,99827.53
2022-10-24T01:48:29.585Z,99833.69
2022-10-24T01:50:59.522Z,99817.56
2022-10-24T01:53:29.218Z,99807.09
2022-10-24T01:55:58.422Z,99803.59
2022-10-24T01:58:26.440Z,99805.59
2022-10-24T02:01:01.021Z,99806.44
2022-10-24T02:03:33.719Z,99815.25
2022-10-24T02:06:08.126Z,99809.75
2022-10-24T02:08:40.095Z,99809.09
2022-10-24T02:11:10.682Z,99799.66
2022-10-24T02:13:45.595Z,99801.94
2022-10-24T02:16:18.506Z,99801.94
2022-10-24T02:18:47.860Z,99796.28
2022-10-24T02:21:24.728Z,99795.78
2022-10-24T02:23:56.595Z,99800.28
2022-10-24T02:26:32.371Z,99798.28
2022-10-24T02:29:03.604Z,99802.78
2022-10-24T02:31:37.395Z,99797.44
2022-10-24T02:34:08.862Z,99794.34
2022-10-24T02:36:38.514Z,99801.22
2022-10-24T02:39:10.025Z,99796.09
2022-10-24T02:41:40.754Z,99799.41
2022-10-24T02:44:10.728Z,99794.72
2022-10-24T02:46:40.537Z,99796.75
2022-10-24T02:49:08.651Z,99801.72
2022-10-24T02:51:39.189Z,99801.53
2022-10-24T02:54:07.163Z,99798.88
2022-10-24T02:56:36.260Z,99797.22
2022-10-24T02:59:04.025Z,99800.88
2022-10-24T03:01:31.864Z,99796.47
2022-10-24T03:04:01.047Z,99792.34
2022-10-24T03:06:28.835Z,99780.88
2022-10-24T03:08:56.569Z,99782.53
2022-10-24T03:11:24.337Z,99782.09
2022-10-24T03:13:52.694Z,99791.50
2022-10-24T03:16:20.904Z,99790.50
2022-10-24T03:18:48.600Z,99795.81
2022-10-24T03:21:17.700Z,99795.22
2022-10-24T03:23:45.428Z,99795.81
2022-10-24T03:26:13.300Z,99791.97
2022-10-24T03:28:41.103Z,99796.47
2022-10-24T03:31:09.426Z,99799.78
2022-10-24T03:33:37.332Z,99789.97
2022-10-24T03:36:06.439Z,99788.31
2022-10-24T03:38:35.645Z,99794.47
2022-10-24T03:41:03.321Z,99797.66
2022-10-24T03:43:31.057Z,99798.47
2022-10-24T03:45:59.512Z,99788.66
2022-10-24T03:48:27.895Z,99786.84
2022-10-24T03:50:56.148Z,99783.81
2022-10-24T03:53:23.996Z,99782.44
2022-10-24T03:55:53.214Z,99794.00
2022-10-24T03:58:20.975Z,99797.47
2022-10-24T04:00:48.739Z,99804.47
2022-10-24T04:03:16.472Z,99808.78
2022-10-24T04:05:44.215Z,99806.13
2022-10-24T04:08:11.977Z,99810.44
2022-10-24T04:10:39.675Z,99806.75
2022-10-24T04:13:08.723Z,99812.56
2022-10-24T04:15:36.531Z,99810.06
2022-10-24T04:18:04.827Z,99790.72
2022-10-24T04:20:32.531Z,99803.44
2022-10-24T04:23:02.413Z,99799.78
2022-10-24T04:25:32.424Z,99804.75
2022-10-24T04:28:00.099Z,99802.28
2022-10-24T04:30:30.012Z,99807.78
2022-10-24T04:32:58.209Z,99807.59
2022-10-24T04:35:26.662Z,99807.94
2022-10-24T04:37:54.426Z,99800.78
2022-10-24T04:40:22.186Z,99797.31
2022-10-24T04:42:49.836Z,99799.78
2022-10-24T04:45:17.716Z,99806.75
2022-10-24T04:47:47.037Z,99800.09
2022-10-24T04:50:14.909Z,99807.06
2022-10-24T04:52:42.542Z,99810.72
2022-10-24T04:55:10.554Z,99811.72
2022-10-24T04:57:38.545Z,99815.03
2022-10-24T05:00:07.803Z,99815.75
2022-10-24T05:02:35.625Z,99808.59
2022-10-24T05:05:05.193Z,99810.44
2022-10-24T05:07:32.984Z,99804.47
2022-10-24T05:10:00.808Z,99798.94
2022-10-24T05:12:28.617Z,99812.34
2022-10-24T05:14:56.314Z,99821.34
2022-10-24T05:17:24.346Z,99812.53
2022-10-24T05:19:52.056Z,99822.53
2022-10-24T05:22:21.324Z,99829.13
2022-10-24T05:24:49.096Z,99831.63
2022-10-24T05:27:20.673Z,99830.81
2022-10-24T05:29:48.431Z,99843.09
2022-10-24T05:32:16.127Z,99846.38
2022-10-24T05:34:43.839Z,99840.69
2022-10-24T05:37:11.567Z,99842.19
2022-10-24T05:39:41.122Z,99843.53
2022-10-24T05:42:11.028Z,99842.72
2022-10-24T05:44:39.326Z,99841.06
2022-10-24T05:47:07.430Z,99843.44
2022-10-24T05:49:35.455Z,99839.47
2022-10-24T05:52:03.346Z,99831.38
2022-10-24T05:54:37.822Z,99843.16
2022-10-24T05:57:18.122Z,99845.31
2022-10-24T05:59:45.844Z,99850.38
2022-10-24T06:02:19.093Z,99847.06
2022-10-24T06:04:48.144Z,99845.59
2022-10-24T06:07:15.896Z,99849.91
2022-10-24T06:09:43.659Z,99852.88
2022-10-24T06:12:12.538Z,99851.81
2022-10-24T06:14:41.831Z,99850.19
2022-10-24T06:17:11.781Z,99853.88
2022-10-24T06:19:39.739Z,99859.53
2022-10-24T06:22:09.468Z,99854.91
2022-10-24T06:24:37.878Z,99855.25
2022-10-24T06:27:07.028Z,99862.06
2022-10-24T06:29:35.538Z,99862.88
2022-10-24T06:32:04.562Z,99867.22
2022-10-24T06:34:32.393Z,99868.03
2022-10-24T06:37:00.048Z,99869.22
2022-10-24T06:39:27.801Z,99873.88
2022-10-24T06:41:55.444Z,99878.19
2022-10-24T06:44:23.578Z,99889.50
2022-10-24T06:46:51.297Z,99891.44
2022-10-24T06:49:20.570Z,99892.28
2022-10-24T06:51:48.254Z,99885.66
2022-10-24T06:54:16.292Z,99892.63
2022-10-24T06:56:44.073Z,99880.19
2022-10-24T06:59:13.994Z,99891.44
2022-10-24T07:01:41.899Z,99891.09
2022-10-24T07:04:09.943Z,99893.94
2022-10-24T07:06:39.245Z,99903.69
2022-10-24T07:09:10.231Z,99909.31
2022-10-24T07:11:40.633Z,99912.28
2022-10-24T07:14:09.461Z,99915.56
2022-10-24T07:16:37.872Z,99921.69
2022-10-24T07:19:06.642Z,99920.53
2022-10-24T07:21:34.818Z,99918.53
2022-10-24T07:24:05.368Z,99918.16
2022-10-24T07:26:33.271Z,99923.31
2022-10-24T07:31:36.707Z,99944.53
2022-10-24T07:34:06.686Z,99939.69
2022-10-24T07:36:34.392Z,99943.81
2022-10-24T07:39:02.614Z,99946.13
2022-10-24T07:41:33.513Z,99958.88
2022-10-24T07:44:03.079Z,99958.38
2022-10-24T07:46:31.559Z,99965.81
2022-10-24T07:48:59.296Z,99967.47
2022-10-24T07:51:28.456Z,99968.13
2022-10-24T07:53:57.180Z,99967.84
2022-10-24T07:56:25.288Z,99970.13
2022-10-24T07:58:55.010Z,99974.47
2022-10-24T08:01:25.334Z,99960.16
2022-10-24T08:03:53.091Z,99967.09
2022-10-24T08:06:24.530Z,99968.75
2022-10-24T08:08:52.574Z,99968.56
2022-10-24T08:11:22.704Z,99959.09
2022-10-24T08:13:51.717Z,99952.41
2022-10-24T08:16:22.735Z,99975.03
2022-10-24T08:18:52.151Z,99968.00
2022-10-24T08:21:21.787Z,99963.78
2022-10-24T08:23:52.108Z,99969.59
2022-10-24T08:26:21.862Z,99966.56
2022-10-24T08:28:50.024Z,99971.34
2022-10-24T08:31:21.575Z,99967.13
2022-10-24T08:33:51.954Z,99966.78
2022-10-24T08:36:26.855Z,99969.06
2022-10-24T08:38:54.857Z,99954.16
2022-10-24T08:41:28.865Z,99969.34
2022-10-24T08:43:58.596Z,99967.97
2022-10-24T08:46:49.070Z,99969.63
2022-10-24T08:49:24.810Z,99971.28
2022-10-24T08:51:55.647Z,99968.25
2022-10-24T08:54:29.183Z,99968.81
2022-10-24T08:56:59.890Z,99979.75
2022-10-24T08:59:30.968Z,99988.19
2022-10-24T09:02:04.537Z,99985.81
2022-10-24T09:04:40.207Z,99971.09
2022-10-24T09:07:15.420Z,99969.81
2022-10-24T09:09:47.648Z,99969.91
2022-10-24T09:12:16.994Z,99975.91
2022-10-24T09:14:46.995Z,99979.00
2022-10-24T09:17:21.452Z,99976.34
2022-10-24T09:19:53.231Z,99978.28
2022-10-24T09:22:22.319Z,99987.75
2022-10-24T09:24:54.291Z,99986.56
2022-10-24T09:27:25.301Z,99986.16
2022-10-24T09:29:53.587Z,99989.09
2022-10-24T09:32:26.763Z,99997.75
2022-10-24T09:34:55.153Z,99984.13
2022-10-24T09:37:43.948Z,99997.41
2022-10-24T09:40:19.787Z,99997.75
2022-10-24T09:43:01.038Z,100002.44
2022-10-24T09:45:43.382Z,100001.44
2022-10-24T09:48:26.168Z,100009.63
2022-10-24T09:50:58.077Z,100013.28
2022-10-24T09:53:29.084Z,100012.94
2022-10-24T09:56:00.567Z,100020.28
2022-10-24T09:58:32.732Z,100020.81
2022-10-24T10:01:05.191Z,100024.50
2022-10-24T10:03:36.024Z,100030.13
2022-10-24T10:06:16.356Z,100037.28
2022-10-24T10:08:51.326Z,100042.44
2022-10-24T10:11:26.575Z,100057.72
2022-10-24T10:13:55.464Z,100052.28
2022-10-24T10:16:25.976Z,100051.59
2022-10-24T10:19:03.643Z,100052.66
2022-10-24T10:21:56.200Z,100038.25
2022-10-24T10:24:29.484Z,100050.19
2022-10-24T10:26:57.335Z,100050.56
2022-10-24T10:29:25.838Z,100046.06
2022-10-24T10:32:03.050Z,100053.25
2022-10-24T10:34:40.540Z,100056.56
2022-10-24T10:41:02.832Z,100063.28
2022-10-24T10:43:38.606Z,100075.59
2022-10-24T10:46:17.604Z,100082.47
2022-10-24T10:48:56.592Z,100070.78
2022-10-24T10:51:39.940Z,100080.34
2022-10-24T10:54:31.455Z,100094.72
2022-10-24T10:57:04.139Z,100090.66
2022-10-24T10:59:46.495Z,100088.16
2022-10-24T11:02:36.002Z,100098.31
2022-10-24T11:05:17.996Z,100093.59
2022-10-24T11:07:57.846Z,100097.66
2022-10-24T11:10:48.042Z,100086.16
2022-10-24T11:13:25.352Z,100099.31
2022-10-24T11:16:01.645Z,100109.97
2022-10-24T11:18:35.628Z,100102.50
2022-10-24T11:21:09.756Z,100123.31
2022-10-24T11:23:44.523Z,100115.78
2022-10-24T11:26:19.953Z,100104.91
2022-10-24T11:29:03.122Z,100109.41
2022-10-24T11:31:35.115Z,100129.66
2022-10-24T11:34:12.281Z,100112.56
2022-10-24T11:36:44.376Z,100111.72
2022-10-24T11:39:19.196Z,100114.75
2022-10-24T11:41:54.773Z,100116.78
2022-10-24T11:44:39.467Z,100115.94
2022-10-24T11:47:35.007Z,100122.13
2022-10-24T11:50:11.539Z,100107.03
2022-10-24T11:52:43.892Z,100119.16
2022-10-24T11:55:19.786Z,100116.50
2022-10-24T11:57:55.388Z,100118.53
2022-10-24T12:00:26.827Z,100117.34
2022-10-24T12:03:21.135Z,100130.25
2022-10-24T12:06:00.570Z,100121.59
2022-10-24T12:09:17.010Z,100128.47
2022-10-24T12:12:04.546Z,100119.16
2022-10-24T12:15:21.061Z,100119.00
2022-10-24T12:18:16.111Z,100114.22
2022-10-24T12:20:48.616Z,100114.41
2022-10-24T12:23:26.332Z,100120.19
2022-10-24T12:26:10.166Z,100114.84
2022-10-24T12:28:41.823Z,100122.84
2022-10-24T12:31:14.620Z,100121.00
2022-10-24T12:33:43.627Z,100128.66
2022-10-24T12:36:52.550Z,100121.66
2022-10-24T12:39:33.144Z,100110.09
2022-10-24T12:42:01.096Z,100117.69
2022-10-24T12:44:54.064Z,100117.78
2022-10-24T12:47:40.177Z,100121.47
2022-10-24T12:50:45.971Z,100134.19
2022-10-24T12:53:33.771Z,100123.50
2022-10-24T12:56:23.429Z,100126.16
2022-10-24T12:58:59.797Z,100117.16
2022-10-24T13:01:34.364Z,100117.16
2022-10-24T13:04:26.299Z,100106.66
2022-10-24T13:07:21.090Z,100100.25
2022-10-24T13:10:04.478Z,100114.66
2022-10-24T13:12:47.759Z,100122.50
2022-10-24T13:15:28.133Z,100116.50
2022-10-24T13:18:08.865Z,100116.78
2022-10-24T13:20:39.552Z,100121.84
2022-10-24T13:23:16.287Z,100110.34
2022-10-24T13:25:44.767Z,100115.03
2022-10-24T13:28:39.001Z,100098.22
2022-10-24T13:31:44.469Z,100101.91
2022-10-24T13:34:20.304Z,100091.59
2022-10-24T13:36:51.612Z,100093.59
2022-10-24T13:39:22.929Z,100090.75
2022-10-24T13:41:58.020Z,100089.56
2022-10-24T13:44:30.792Z,100093.50
2022-10-24T13:47:07.488Z,100090.09
2022-10-24T13:49:40.897Z,100098.38
2022-10-24T13:52:22.146Z,100097.53
2022-10-24T13:54:56.659Z,100101.59
2022-10-24T13:57:34.825Z,100101.13
2022-10-24T14:00:19.969Z,100099.09
2022-10-24T14:02:53.407Z,100100.31
2022-10-24T14:05:33.079Z,100092.22
2022-10-24T14:08:02.288Z,100102.31
2022-10-24T14:10:30.827Z,100097.44
2022-10-24T14:13:05.047Z,100101.50
2022-10-24T14:15:33.928Z,100103.44
2022-10-24T14:18:14.315Z,100094.13
2022-10-24T14:20:47.935Z,100102.44
2022-10-24T14:23:28.287Z,100100.94
2022-10-24T14:25:59.229Z,100086.88
2022-10-24T14:28:33.694Z,100112.19
2022-10-24T14:31:03.334Z,100113.00
2022-10-24T14:33:32.832Z,100098.22
2022-10-24T14:36:15.141Z,100117.91
2022-10-24T14:38:43.576Z,100117.16
2022-10-24T14:41:11.867Z,100115.50
2022-10-24T14:43:45.078Z,100113.47
2022-10-24T14:46:35.195Z,100124.50
2022-10-24T14:49:22.484Z,100123.50
2022-10-24T14:54:31.240Z,100127.47
2022-10-24T14:57:00.680Z,100126.44
2022-10-24T14:59:33.884Z,100134.09
2022-10-24T15:02:05.482Z,100106.22
2022-10-24T15:04:39.538Z,100129.41
2022-10-24T15:07:27.975Z,100135.09
2022-10-24T15:09:57.585Z,100134.75
2022-10-24T15:12:29.148Z,100138.41
2022-10-24T15:15:01.119Z,100136.00
2022-10-24T15:17:32.695Z,100148.09
2022-10-24T15:20:02.962Z,100134.28
2022-10-24T15:22:34.909Z,100135.09
2022-10-24T15:25:06.603Z,100127.09
2022-10-24T15:27:40.471Z,100143.47
2022-10-24T15:30:14.400Z,100130.69
2022-10-24T15:32:42.115Z,100128.66
2022-10-24T15:35:10.335Z,100126.16
2022-10-24T15:37:39.367Z,100131.88
2022-10-24T15:40:16.332Z,100133.53
2022-10-24T15:42:44.246Z,100130.16
2022-10-24T15:45:15.285Z,100131.97
2022-10-24T15:47:44.644Z,100132.63
2022-10-24T15:50:15.014Z,100141.00
2022-10-24T15:52:47.488Z,100141.53
2022-10-24T15:55:18.460Z,100146.44
2022-10-24T15:57:46.676Z,100149.66
2022-10-24T16:00:17.561Z,100150.47
2022-10-24T16:02:48.331Z,100153.81
2022-10-24T16:05:19.265Z,100159.50
2022-10-24T16:07:48.984Z,100149.84
2022-10-24T16:13:10.675Z,100152.78
2022-10-24T16:15:39.696Z,100158.13
2022-10-24T16:18:07.527Z,100168.31
2022-10-24T16:20:36.494Z,100167.81
2022-10-24T16:23:06.875Z,100159.66
2022-10-24T16:25:37.690Z,100141.66
2022-10-24T16:28:07.267Z,100173.88
2022-10-24T16:30:37.726Z,100173.06
2022-10-24T16:33:06.102Z,100177.75
2022-10-24T16:35:36.661Z,100175.25
2022-10-24T16:38:07.496Z,100166.22
2022-10-24T16:43:09.231Z,100185.94
2022-10-24T16:45:37.001Z,100178.09
2022-10-24T16:48:05.272Z,100182.44
2022-10-24T16:50:33.634Z,100179.09
2022-10-24T16:53:04.152Z,100186.47
2022-10-24T16:55:33.602Z,100184.78
2022-10-24T16:58:01.555Z,100188.81
2022-10-24T17:00:30.282Z,100183.88
2022-10-24T17:02:58.896Z,100163.34
2022-10-24T17:05:29.018Z,100190.88
2022-10-24T17:07:57.309Z,100187.72
2022-10-24T17:10:25.413Z,100172.59
2022-10-24T17:12:54.556Z,100172.53
2022-10-24T17:15:22.899Z,100194.91
2022-10-24T17:17:50.833Z,100193.88
2022-10-24T17:20:18.794Z,100185.28
2022-10-24T17:22:47.410Z,100177.28
2022-10-24T17:25:20.628Z,100189.56
2022-10-24T17:27:49.026Z,100199.88
2022-10-24T17:30:20.452Z,100190.41
2022-10-24T17:32:48.595Z,100181.25
2022-10-24T17:35:20.433Z,100189.56
2022-10-24T17:37:57.236Z,100174.63
2022-10-24T17:40:29.187Z,100172.97
2022-10-24T17:42:57.483Z,100195.25
2022-10-24T17:45:26.918Z,100185.28
2022-10-24T17:47:55.510Z,100200.28
2022-10-24T17:50:23.234Z,100199.63
2022-10-24T17:52:52.106Z,100211.94
2022-10-24T17:55:44.494Z,100206.16
2022-10-24T17:58:10.229Z,100200.41
2022-10-24T18:00:39.758Z,100211.03
2022-10-24T18:03:08.689Z,100220.03
2022-10-24T18:05:38.410Z,100215.53
2022-10-24T18:08:08.233Z,100209.22
2022-10-24T18:10:37.708Z,100221.09
2022-10-24T18:13:05.710Z,100152.72
2022-10-24T18:15:33.629Z,100224.38
2022-10-24T18:18:02.875Z,100239.09
2022-10-24T18:20:32.251Z,100231.28
2022-10-24T18:23:01.454Z,100229.13
2022-10-24T18:25:37.338Z,100233.78
2022-10-24T18:28:05.674Z,100187.88
2022-10-24T18:30:35.386Z,100199.16
2022-10-24T18:33:06.500Z,100250.75
2022-10-24T18:35:36.428Z,100244.44
2022-10-24T18:38:04.200Z,100255.75
2022-10-24T18:40:35.081Z,100259.22
2022-10-24T18:43:05.221Z,100268.59
2022-10-24T18:45:33.863Z,100263.25
2022-10-24T18:48:02.424Z,100262.25
2022-10-24T18:50:31.871Z,100265.44
2022-10-24T18:53:05.007Z,100263.13
2022-10-24T18:55:34.319Z,100256.47
2022-10-24T18:58:02.770Z,100254.84
2022-10-24T19:00:32.676Z,100239.28
2022-10-24T19:03:17.524Z,100260.50
2022-10-24T19:05:52.030Z,100252.97
2022-10-24T19:08:25.231Z,100259.63
2022-10-24T19:10:55.803Z,100266.78
2022-10-24T19:13:25.137Z,100264.44
2022-10-24T19:15:58.022Z,100261.59
2022-10-24T19:18:27.227Z,100260.75
2022-10-24T19:20:56.495Z,100234.69
2022-10-24T19:23:24.677Z,100257.94
2022-10-24T19:25:53.002Z,100259.44
2022-10-24T19:28:21.575Z,100258.78
2022-10-24T19:30:49.657Z,100207.88
2022-10-24T19:33:17.742Z,100262.63
2022-10-24T19:35:47.004Z,100259.50
2022-10-24T19:38:17.439Z,100230.97
2022-10-24T19:40:46.889Z,100256.84
2022-10-24T19:43:14.753Z,100232.63
2022-10-24T19:45:50.192Z,100271.63
2022-10-24T19:48:22.891Z,100173.84
2022-10-24T19:50:51.470Z,100268.34
2022-10-24T19:53:20.544Z,100268.84
2022-10-24T19:55:48.435Z,100273.50
2022-10-24T19:58:19.946Z,100281.50
2022-10-24T20:00:47.698Z,100271.16
2022-10-24T20:03:15.954Z,100273.84
2022-10-24T20:05:43.835Z,100286.00
2022-10-24T20:08:11.559Z,100288.50
2022-10-24T20:10:40.603Z,100280.19
2022-10-24T20:13:08.280Z,100296.84
2022-10-24T20:15:35.923Z,100286.19
2022-10-24T20:18:03.676Z,100294.50
2022-10-24T20:20:31.564Z,100293.50
2022-10-24T20:22:59.427Z,100298.19
2022-10-24T20:25:27.248Z,100300.00
2022-10-24T20:27:56.336Z,100297.41
2022-10-24T20:30:24.096Z,100306.88
2022-10-24T20:32:51.823Z,100312.53
2022-10-24T20:35:22.111Z,100310.06
2022-10-24T20:37:50.188Z,100286.63
2022-10-24T20:40:18.185Z,100306.56
2022-10-24T20:42:46.971Z,100326.03
2022-10-24T20:45:20.469Z,100332.84
2022-10-24T20:47:50.885Z,100336.34
2022-10-24T20:50:18.798Z,100331.84
2022-10-24T20:52:46.702Z,100344.00
2022-10-24T20:55:25.146Z,100345.66
2022-10-24T20:58:02.282Z,100342.16
2022-10-24T21:00:31.473Z,100341.50
2022-10-24T21:02:59.247Z,100335.84
2022-10-24T21:05:28.988Z,100336.69
2022-10-24T21:07:56.896Z,100336.84
2022-10-24T21:10:24.608Z,100338.53
2022-10-24T21:12:52.569Z,100346.84
2022-10-24T21:15:20.537Z,100362.81
2022-10-24T21:17:49.602Z,100347.84
2022-10-24T21:20:17.375Z,100359.50
2022-10-24T21:22:45.067Z,100363.31
2022-10-24T21:25:12.800Z,100366.81
2022-10-24T21:27:40.528Z,100386.97
2022-10-24T21:30:14.293Z,100369.16
2022-10-24T21:32:42.541Z,100379.97
2022-10-24T21:35:11.773Z,100387.13
2022-10-24T21:37:39.456Z,100364.50
2022-10-24T21:40:08.241Z,100367.16
2022-10-24T21:42:36.023Z,100374.31
2022-10-24T21:45:03.980Z,100383.97
2022-10-24T21:47:32.056Z,100393.47
2022-10-24T21:49:59.765Z,100398.78
2022-10-24T21:52:28.873Z,100395.47
2022-10-24T21:54:56.891Z,100398.44
2022-10-24T21:57:24.723Z,100367.53
2022-10-24T21:59:52.395Z,100398.81
2022-10-24T22:02:20.177Z,100396.97
2022-10-24T22:04:48.271Z,100405.81
2022-10-24T22:07:16.375Z,100393.78
2022-10-24T22:09:45.544Z,100410.09
2022-10-24T22:12:13.256Z,100404.09
2022-10-24T22:14:41.020Z,100405.94
2022-10-24T22:17:08.733Z,100406.09
2022-10-24T22:19:36.388Z,100410.75
2022-10-24T22:22:04.309Z,100407.78
2022-10-24T22:24:31.976Z,100405.97
2022-10-24T22:27:01.073Z,100410.13
2022-10-24T22:29:28.914Z,100408.13
2022-10-24T22:31:57.189Z,100409.78
2022-10-24T22:34:26.114Z,100410.44
2022-10-24T22:37:05.253Z,100414.63
2022-10-24T22:39:33.805Z,100412.13
2022-10-24T22:42:03.483Z,100408.13
2022-10-24T22:44:31.693Z,100402.63
2022-10-24T22:47:26.120Z,100414.94
2022-10-24T22:50:03.687Z,100416.94
2022-10-24T22:52:31.845Z,100415.63
2022-10-24T22:55:00.017Z,100406.97
2022-10-24T22:57:29.624Z,100421.09
2022-10-24T22:59:57.826Z,100430.09
2022-10-24T23:02:33.690Z,100433.41
2022-10-24T23:05:06.070Z,100436.06
2022-10-24T23:07:42.947Z,100437.91
2022-10-24T23:10:13.798Z,100449.38
2022-10-24T23:12:43.597Z,100450.56
2022-10-24T23:15:14.006Z,100452.38
2022-10-24T23:17:42.355Z,100454.41
2022-10-24T23:20:23.955Z,100443.56
2022-10-24T23:23:03.002Z,100464.38
2022-10-24T23:25:43.247Z,100467.22
2022-10-24T23:28:20.144Z,100470.19
2022-10-24T23:30:48.318Z,100468.69
2022-10-24T23:33:27.280Z,100458.72
2022-10-24T23:35:59.004Z,100469.84
2022-10-24T23:38:27.929Z,100467.03
2022-10-24T23:40:56.379Z,100472.19
2022-10-24T23:43:26.071Z,100460.38
2022-10-24T23:45:58.467Z,100471.34
2022-10-24T23:48:48.073Z,100475.00
2022-10-24T23:51:20.993Z,100474.84
2022-10-24T23:53:52.774Z,100483.00
2022-10-24T23:56:23.304Z,100480.66
2022-10-24T23:58:52.681Z,100480.66
